createdAt,value
2022-09-12T00:00:10.260Z,12.90
2022-09-12T00:02:12.987Z,12.90
2022-09-12T00:04:15.739Z,12.90
2022-09-12T00:06:22.929Z,12.90
2022-09-12T00:08:25.711Z,12.90
2022-09-12T00:10:28.375Z,12.90
2022-09-12T00:12:31.111Z,12.80
2022-09-12T00:14:33.787Z,12.80
2022-09-12T00:16:38.034Z,12.80
2022-09-12T00:18:40.801Z,12.80
2022-09-12T00:20:43.612Z,12.80
2022-09-12T00:22:46.297Z,12.80
2022-09-12T00:24:48.969Z,12.70
2022-09-12T00:26:51.641Z,12.60
2022-09-12T00:28:54.393Z,12.60
2022-09-12T00:30:57.066Z,12.60
2022-09-12T00:33:01.083Z,12.60
2022-09-12T00:35:03.777Z,12.60
2022-09-12T00:37:06.480Z,12.70
2022-09-12T00:39:09.400Z,12.70
2022-09-12T00:41:14.415Z,12.70
2022-09-12T00:43:34.863Z,12.70
2022-09-12T00:45:37.629Z,12.70
2022-09-12T00:47:40.345Z,12.60
2022-09-12T00:49:46.148Z,12.60
2022-09-12T00:51:50.279Z,12.60
2022-09-12T00:53:52.975Z,12.60
2022-09-12T00:55:55.647Z,12.60
2022-09-12T00:58:00.251Z,12.60
2022-09-12T01:00:07.436Z,12.60
2022-09-12T01:02:10.241Z,12.60
2022-09-12T01:04:13.003Z,12.60
2022-09-12T01:06:18.829Z,12.60
2022-09-12T01:08:21.948Z,12.60
2022-09-12T01:10:24.667Z,12.60
2022-09-12T01:12:27.332Z,12.60
2022-09-12T01:14:30.087Z,12.60
2022-09-12T01:16:32.921Z,12.60
2022-09-12T01:18:42.483Z,12.60
2022-09-12T01:20:54.847Z,12.60
2022-09-12T01:23:31.169Z,12.50
2022-09-12T01:25:36.168Z,12.50
2022-09-12T01:27:48.697Z,12.50
2022-09-12T01:30:31.408Z,12.50
2022-09-12T01:32:40.157Z,12.40
2022-09-12T01:34:44.920Z,12.40
2022-09-12T01:36:52.860Z,12.30
2022-09-12T01:38:59.236Z,12.20
2022-09-12T01:41:07.467Z,12.20
2022-09-12T01:43:15.985Z,12.20
2022-09-12T01:45:22.356Z,12.20
2022-09-12T01:47:28.324Z,12.20
2022-09-12T01:49:34.097Z,12.20
2022-09-12T01:51:39.191Z,12.30
2022-09-12T01:53:43.983Z,12.30
2022-09-12T01:55:48.115Z,12.30
2022-09-12T01:57:52.632Z,12.30
2022-09-12T01:59:57.526Z,12.30
2022-09-12T02:02:02.910Z,12.20
2022-09-12T02:04:08.727Z,12.20
2022-09-12T02:06:13.833Z,12.20
2022-09-12T02:08:18.211Z,12.20
2022-09-12T02:10:22.424Z,12.10
2022-09-12T02:12:26.724Z,12.00
2022-09-12T02:14:30.679Z,12.00
2022-09-12T02:16:35.198Z,11.90
2022-09-12T02:18:39.724Z,11.90
2022-09-12T02:20:48.300Z,11.80
2022-09-12T02:22:51.697Z,11.80
2022-09-12T02:24:56.536Z,11.80
2022-09-12T02:27:00.821Z,11.80
2022-09-12T02:29:03.661Z,11.80
2022-09-12T02:31:10.624Z,11.80
2022-09-12T02:33:16.076Z,11.80
2022-09-12T02:35:23.575Z,11.80
2022-09-12T02:37:31.917Z,11.80
2022-09-12T02:39:35.030Z,11.70
2022-09-12T02:41:37.703Z,11.80
2022-09-12T02:43:40.496Z,11.70
2022-09-12T02:45:43.226Z,11.70
2022-09-12T02:47:47.938Z,11.70
2022-09-12T02:49:50.624Z,11.70
2022-09-12T02:51:54.629Z,11.70
2022-09-12T02:53:57.322Z,11.70
2022-09-12T02:55:59.988Z,11.60
2022-09-12T02:58:02.707Z,11.60
2022-09-12T03:00:06.253Z,11.70
2022-09-12T03:02:16.675Z,11.70
2022-09-12T03:04:31.068Z,11.60
2022-09-12T03:06:36.151Z,11.60
2022-09-12T03:08:48.424Z,11.60
2022-09-12T03:11:13.914Z,11.60
2022-09-12T03:13:19.781Z,11.70
2022-09-12T03:15:30.188Z,11.60
2022-09-12T03:17:40.733Z,11.60
2022-09-12T03:19:48.647Z,11.60
2022-09-12T03:21:56.864Z,11.50
2022-09-12T03:24:12.279Z,11.60
2022-09-12T03:26:17.771Z,11.50
2022-09-12T03:28:20.889Z,11.50
2022-09-12T03:30:23.609Z,11.50
2022-09-12T03:32:41.266Z,11.50
2022-09-12T03:34:43.948Z,11.50
2022-09-12T03:36:46.619Z,11.40
2022-09-12T03:38:50.333Z,11.40
2022-09-12T03:40:55.082Z,11.40
2022-09-12T03:42:57.851Z,11.40
2022-09-12T03:45:00.542Z,11.40
2022-09-12T03:47:03.214Z,11.30
2022-09-12T03:49:06.023Z,11.30
2022-09-12T03:51:09.644Z,11.30
2022-09-12T03:53:16.554Z,11.30
2022-09-12T03:55:20.013Z,11.20
2022-09-12T03:57:24.021Z,11.20
2022-09-12T03:59:26.712Z,11.30
2022-09-12T04:01:29.409Z,11.30
2022-09-12T04:03:32.123Z,11.20
2022-09-12T04:05:34.792Z,11.20
2022-09-12T04:07:37.469Z,11.20
2022-09-12T04:09:40.160Z,11.20
2022-09-12T04:11:42.819Z,11.20
2022-09-12T04:13:47.069Z,11.20
2022-09-12T04:15:57.645Z,11.20
2022-09-12T04:18:05.067Z,11.20
2022-09-12T04:20:09.215Z,11.20
2022-09-12T04:22:11.911Z,11.20
2022-09-12T04:24:14.587Z,11.20
2022-09-12T04:26:18.148Z,11.10
2022-09-12T04:28:20.824Z,11.10
2022-09-12T04:30:24.878Z,11.10
2022-09-12T04:32:27.593Z,11.10
2022-09-12T04:34:31.589Z,11.10
2022-09-12T04:36:34.423Z,11.20
2022-09-12T04:38:37.407Z,11.20
2022-09-12T04:40:40.080Z,11.20
2022-09-12T04:42:42.756Z,11.20
2022-09-12T04:44:45.445Z,11.10
2022-09-12T04:46:49.504Z,11.00
2022-09-12T04:48:56.682Z,11.00
2022-09-12T04:51:07.750Z,11.10
2022-09-12T04:53:10.442Z,11.10
2022-09-12T04:55:13.117Z,11.10
2022-09-12T04:57:15.796Z,11.10
2022-09-12T04:59:19.738Z,11.00
2022-09-12T05:01:23.149Z,11.00
2022-09-12T05:03:27.203Z,11.00
2022-09-12T05:05:29.864Z,11.10
2022-09-12T05:07:32.967Z,11.00
2022-09-12T05:09:35.653Z,11.10
2022-09-12T05:12:03.165Z,11.10
2022-09-12T05:14:02.123Z,11.10
2022-09-12T05:16:05.645Z,11.20
2022-09-12T05:18:08.340Z,11.20
2022-09-12T05:20:13.417Z,11.20
2022-09-12T05:22:16.085Z,11.20
2022-09-12T05:24:18.905Z,11.20
2022-09-12T05:26:21.734Z,11.20
2022-09-12T05:28:24.840Z,11.30
2022-09-12T05:30:27.549Z,11.30
2022-09-12T05:32:32.672Z,11.30
2022-09-12T05:34:35.358Z,11.30
2022-09-12T05:36:39.492Z,11.40
2022-09-12T05:38:42.241Z,11.40
2022-09-12T05:40:44.957Z,11.40
2022-09-12T05:42:47.934Z,11.40
2022-09-12T05:44:50.630Z,11.50
2022-09-12T05:46:53.605Z,11.60
2022-09-12T05:48:57.034Z,11.60
2022-09-12T05:51:02.957Z,11.70
2022-09-12T05:53:07.100Z,11.70
2022-09-12T05:55:11.489Z,11.80
2022-09-12T05:57:14.165Z,11.80
2022-09-12T05:59:18.508Z,11.90
2022-09-12T06:01:21.337Z,11.90
2022-09-12T06:03:24.081Z,12.00
2022-09-12T06:05:26.834Z,12.10
2022-09-12T06:07:29.618Z,12.20
2022-09-12T06:09:33.627Z,12.30
2022-09-12T06:11:37.276Z,12.30
2022-09-12T06:13:40.397Z,12.40
2022-09-12T06:15:43.094Z,12.40
2022-09-12T06:17:50.779Z,12.50
2022-09-12T06:19:54.125Z,12.60
2022-09-12T06:21:57.002Z,12.70
2022-09-12T06:23:59.764Z,12.70
2022-09-12T06:26:04.724Z,12.80
2022-09-12T06:28:08.389Z,12.90
2022-09-12T06:30:12.228Z,13.00
2022-09-12T06:32:14.893Z,13.10
2022-09-12T06:34:17.694Z,13.10
2022-09-12T06:36:22.112Z,13.20
2022-09-12T06:38:24.925Z,13.30
2022-09-12T06:40:28.231Z,13.30
2022-09-12T06:42:32.508Z,13.50
2022-09-12T06:44:35.194Z,13.60
2022-09-12T06:46:37.874Z,13.70
2022-09-12T06:48:42.091Z,13.90
2022-09-12T06:50:44.992Z,14.10
2022-09-12T06:52:50.073Z,14.40
2022-09-12T06:54:52.759Z,14.70
2022-09-12T06:56:55.472Z,14.90
2022-09-12T06:58:59.697Z,15.20
2022-09-12T07:01:03.169Z,15.40
2022-09-12T07:03:07.856Z,15.70
2022-09-12T07:05:11.369Z,15.80
2022-09-12T07:07:14.618Z,16.00
2022-09-12T07:09:17.707Z,16.20
2022-09-12T07:11:21.453Z,16.50
2022-09-12T07:13:24.132Z,16.60
2022-09-12T07:15:28.181Z,16.80
2022-09-12T07:17:30.848Z,16.90
2022-09-12T07:19:33.537Z,17.10
2022-09-12T07:21:39.568Z,17.20
2022-09-12T07:23:42.848Z,17.50
2022-09-12T07:25:45.525Z,17.50
2022-09-12T07:27:51.124Z,17.80
2022-09-12T07:29:54.013Z,18.00
2022-09-12T07:31:58.018Z,18.20
2022-09-12T07:34:00.709Z,18.50
2022-09-12T07:36:04.503Z,18.70
2022-09-12T07:38:07.349Z,18.80
2022-09-12T07:40:11.034Z,19.00
2022-09-12T07:42:14.650Z,19.20
2022-09-12T07:44:17.351Z,19.30
2022-09-12T07:46:20.050Z,19.50
2022-09-12T07:48:24.139Z,19.70
2022-09-12T07:50:26.906Z,19.90
2022-09-12T07:52:29.566Z,19.70
2022-09-12T07:54:33.220Z,19.70
2022-09-12T07:56:39.103Z,19.90
2022-09-12T07:58:42.789Z,19.90
2022-09-12T08:00:45.967Z,20.10
2022-09-12T08:02:52.032Z,20.10
2022-09-12T08:04:56.066Z,20.20
2022-09-12T08:06:58.727Z,20.10
2022-09-12T08:09:01.852Z,20.80
2022-09-12T08:11:05.881Z,21.10
2022-09-12T08:13:10.752Z,21.40
2022-09-12T08:15:13.635Z,21.60
2022-09-12T08:17:16.309Z,21.70
2022-09-12T08:19:19.592Z,21.60
2022-09-12T08:21:24.450Z,21.90
2022-09-12T08:23:28.069Z,22.20
2022-09-12T08:25:31.078Z,22.50
2022-09-12T08:27:33.751Z,22.70
2022-09-12T08:29:36.431Z,22.90
2022-09-12T08:31:41.234Z,22.70
2022-09-12T08:33:43.951Z,22.70
2022-09-12T08:35:46.667Z,22.70
2022-09-12T08:37:50.671Z,22.80
2022-09-12T08:39:53.654Z,22.80
2022-09-12T08:41:59.139Z,22.50
2022-09-12T08:44:25.623Z,22.20
2022-09-12T08:46:30.264Z,22.50
2022-09-12T08:48:32.969Z,22.50
2022-09-12T08:50:35.654Z,22.70
2022-09-12T08:52:41.876Z,23.00
2022-09-12T08:54:45.920Z,23.10
2022-09-12T08:56:48.631Z,23.00
2022-09-12T08:58:51.323Z,22.90
2022-09-12T09:00:58.147Z,22.70
2022-09-12T09:03:30.027Z,22.30
2022-09-12T09:05:41.574Z,22.40
2022-09-12T09:08:10.677Z,22.20
2022-09-12T09:10:19.880Z,21.80
2022-09-12T09:12:25.263Z,21.70
2022-09-12T09:14:48.845Z,21.80
2022-09-12T09:16:52.801Z,21.70
2022-09-12T09:18:55.498Z,22.00
2022-09-12T09:21:00.351Z,22.10
2022-09-12T09:23:04.644Z,22.10
2022-09-12T09:25:09.264Z,22.10
2022-09-12T09:27:36.927Z,22.20
2022-09-12T09:29:39.247Z,22.10
2022-09-12T09:31:41.993Z,22.20
2022-09-12T09:33:44.715Z,22.30
2022-09-12T09:35:48.794Z,22.60
2022-09-12T09:37:59.660Z,22.30
2022-09-12T09:40:06.547Z,22.50
2022-09-12T09:42:17.920Z,22.20
2022-09-12T09:44:20.605Z,22.50
2022-09-12T09:46:23.508Z,22.50
2022-09-12T09:48:27.563Z,22.50
2022-09-12T09:50:30.254Z,22.40
2022-09-12T09:52:32.919Z,22.60
2022-09-12T09:54:37.906Z,22.70
2022-09-12T09:56:42.077Z,22.90
2022-09-12T09:58:46.263Z,22.70
2022-09-12T10:00:50.366Z,23.10
2022-09-12T10:03:26.320Z,23.10
2022-09-12T10:05:29.148Z,23.40
2022-09-12T10:07:32.240Z,23.20
2022-09-12T10:09:35.824Z,23.10
2022-09-12T10:11:40.586Z,23.30
2022-09-12T10:13:56.774Z,23.30
2022-09-12T10:16:00.310Z,23.30
2022-09-12T10:18:04.141Z,23.40
2022-09-12T10:20:22.983Z,23.50
2022-09-12T10:22:26.992Z,23.70
2022-09-12T10:24:32.051Z,23.90
2022-09-12T10:26:37.133Z,23.50
2022-09-12T10:28:40.792Z,23.60
2022-09-12T10:30:51.534Z,23.70
2022-09-12T10:32:55.249Z,23.70
2022-09-12T10:34:59.727Z,23.30
2022-09-12T10:37:06.761Z,23.40
2022-09-12T10:39:15.748Z,23.70
2022-09-12T10:41:18.407Z,23.90
2022-09-12T10:43:27.400Z,24.10
2022-09-12T10:45:31.212Z,24.30
2022-09-12T10:47:35.236Z,24.10
2022-09-12T10:49:40.293Z,23.90
2022-09-12T10:51:43.166Z,24.00
2022-09-12T10:53:46.393Z,24.00
2022-09-12T10:56:02.831Z,24.10
2022-09-12T10:58:22.337Z,24.20
2022-09-12T11:00:30.303Z,24.00
2022-09-12T11:02:39.292Z,24.30
2022-09-12T11:04:47.530Z,24.40
2022-09-12T11:06:56.417Z,24.30
2022-09-12T11:09:03.989Z,24.40
2022-09-12T11:11:08.973Z,24.10
2022-09-12T11:13:18.181Z,23.70
2022-09-12T11:15:45.659Z,24.30
2022-09-12T11:17:52.647Z,24.30
2022-09-12T11:20:11.094Z,24.80
2022-09-12T11:22:20.808Z,25.00
2022-09-12T11:24:32.969Z,24.50
2022-09-12T11:26:43.992Z,24.60
2022-09-12T11:28:50.990Z,24.40
2022-09-12T11:31:03.022Z,24.30
2022-09-12T11:33:15.935Z,23.90
2022-09-12T11:35:20.761Z,23.70
2022-09-12T11:37:35.552Z,23.30
2022-09-12T11:39:39.640Z,23.30
2022-09-12T11:41:43.149Z,23.70
2022-09-12T11:43:47.883Z,23.60
2022-09-12T11:45:50.769Z,23.90
2022-09-12T11:47:54.307Z,24.20
2022-09-12T11:49:58.337Z,24.30
2022-09-12T11:52:02.707Z,24.50
2022-09-12T11:54:10.903Z,24.70
2022-09-12T11:56:16.689Z,24.60
2022-09-12T11:58:19.694Z,24.80
2022-09-12T12:00:23.131Z,25.00
2022-09-12T12:02:27.690Z,24.80
2022-09-12T12:04:36.185Z,24.70
2022-09-12T12:06:48.045Z,24.50
2022-09-12T12:08:51.179Z,25.20
2022-09-12T12:10:56.233Z,25.50
2022-09-12T12:12:58.984Z,25.80
2022-09-12T12:15:01.688Z,25.40
2022-09-12T12:17:04.575Z,26.10
2022-09-12T12:19:19.893Z,25.40
2022-09-12T12:21:32.933Z,25.40
2022-09-12T12:23:37.003Z,25.80
2022-09-12T12:25:41.523Z,26.10
2022-09-12T12:27:50.445Z,25.60
2022-09-12T12:29:53.148Z,24.90
2022-09-12T12:32:24.594Z,25.40
2022-09-12T12:34:29.119Z,26.00
2022-09-12T12:36:42.116Z,26.20
2022-09-12T12:38:46.213Z,26.00
2022-09-12T12:40:50.415Z,26.20
2022-09-12T12:43:07.937Z,26.00
2022-09-12T12:45:43.800Z,25.60
2022-09-12T12:47:47.150Z,26.40
2022-09-12T12:49:53.773Z,26.70
2022-09-12T12:51:57.663Z,26.40
2022-09-12T12:54:03.013Z,26.80
2022-09-12T12:56:05.986Z,26.20
2022-09-12T12:58:08.817Z,27.10
2022-09-12T13:00:29.793Z,26.90
2022-09-12T13:02:33.775Z,27.20
2022-09-12T13:04:36.477Z,26.90
2022-09-12T13:06:40.112Z,26.90
2022-09-12T13:08:45.294Z,25.90
2022-09-12T13:10:51.654Z,26.00
2022-09-12T13:12:54.335Z,25.40
2022-09-12T13:14:58.259Z,25.20
2022-09-12T13:17:01.685Z,26.20
2022-09-12T13:19:06.361Z,26.80
2022-09-12T13:21:10.192Z,27.10
2022-09-12T13:23:25.435Z,27.70
2022-09-12T13:25:30.340Z,27.20
2022-09-12T13:27:34.347Z,27.20
2022-09-12T13:29:38.460Z,27.00
2022-09-12T13:31:44.212Z,26.70
2022-09-12T13:33:50.604Z,26.80
2022-09-12T13:36:09.758Z,25.80
2022-09-12T13:38:13.952Z,25.50
2022-09-12T13:40:26.036Z,25.90
2022-09-12T13:42:40.037Z,26.90
2022-09-12T13:44:44.072Z,26.30
2022-09-12T13:46:46.800Z,26.80
2022-09-12T13:48:49.829Z,26.80
2022-09-12T13:50:53.668Z,27.10
2022-09-12T13:52:57.020Z,26.70
2022-09-12T13:55:00.061Z,25.70
2022-09-12T13:57:02.735Z,26.30
2022-09-12T13:59:06.755Z,26.50
2022-09-12T14:01:13.436Z,26.40
2022-09-12T14:03:45.275Z,26.70
2022-09-12T14:05:55.285Z,26.40
2022-09-12T14:07:59.355Z,26.90
2022-09-12T14:10:03.656Z,27.20
2022-09-12T14:12:07.553Z,27.30
2022-09-12T14:14:20.320Z,26.40
2022-09-12T14:16:23.373Z,26.70
2022-09-12T14:18:27.491Z,26.60
2022-09-12T14:20:32.600Z,27.00
2022-09-12T14:22:35.703Z,26.10
2022-09-12T14:24:39.124Z,26.50
2022-09-12T14:26:41.797Z,26.90
2022-09-12T14:28:47.294Z,26.50
2022-09-12T14:31:04.907Z,26.80
2022-09-12T14:33:20.824Z,26.50
2022-09-12T14:35:24.073Z,26.80
2022-09-12T14:37:26.751Z,26.70
2022-09-12T14:39:31.302Z,25.90
2022-09-12T14:41:36.030Z,26.10
2022-09-12T14:43:39.923Z,25.90
2022-09-12T14:45:42.611Z,25.70
2022-09-12T14:47:49.553Z,26.00
2022-09-12T14:49:52.595Z,25.80
2022-09-12T14:51:56.346Z,25.30
2022-09-12T14:53:59.493Z,25.20
2022-09-12T14:56:08.847Z,25.40
2022-09-12T14:58:16.867Z,25.50
2022-09-12T15:00:23.911Z,25.40
2022-09-12T15:02:27.007Z,25.20
2022-09-12T15:04:40.870Z,25.00
2022-09-12T15:06:43.629Z,24.80
2022-09-12T15:08:46.301Z,24.70
2022-09-12T15:10:49.138Z,24.20
2022-09-12T15:12:51.974Z,24.30
2022-09-12T15:14:54.978Z,24.10
2022-09-12T15:16:57.657Z,24.10
2022-09-12T15:19:00.329Z,23.90
2022-09-12T15:21:05.418Z,23.70
2022-09-12T15:23:11.807Z,23.60
2022-09-12T15:25:14.497Z,23.70
2022-09-12T15:27:17.163Z,23.80
2022-09-12T15:29:19.862Z,23.70
2022-09-12T15:31:24.996Z,23.60
2022-09-12T15:33:27.765Z,23.70
2022-09-12T15:35:30.456Z,23.60
2022-09-12T15:37:34.456Z,23.60
2022-09-12T15:39:37.143Z,23.50
2022-09-12T15:41:40.192Z,23.40
2022-09-12T15:43:42.864Z,23.30
2022-09-12T15:45:45.677Z,23.20
2022-09-12T15:47:48.343Z,23.10
2022-09-12T15:49:51.379Z,23.10
2022-09-12T15:51:54.051Z,23.00
2022-09-12T15:53:58.061Z,22.90
2022-09-12T15:56:00.875Z,22.80
2022-09-12T15:58:07.212Z,22.80
2022-09-12T16:00:11.583Z,22.70
2022-09-12T16:02:14.273Z,22.70
2022-09-12T16:04:21.545Z,22.70
2022-09-12T16:06:24.446Z,22.70
2022-09-12T16:08:27.137Z,22.70
2022-09-12T16:10:31.329Z,22.60
2022-09-12T16:12:33.992Z,22.60
2022-09-12T16:14:36.683Z,22.60
2022-09-12T16:16:39.397Z,22.60
2022-09-12T16:18:42.198Z,22.60
2022-09-12T16:20:44.926Z,22.50
2022-09-12T16:22:47.636Z,22.50
2022-09-12T16:24:50.320Z,22.40
2022-09-12T16:26:59.111Z,22.40
2022-09-12T16:29:03.760Z,22.40
2022-09-12T16:31:07.596Z,22.30
2022-09-12T16:33:10.313Z,22.30
2022-09-12T16:35:12.996Z,22.20
2022-09-12T16:37:15.674Z,22.20
2022-09-12T16:39:18.473Z,22.10
2022-09-12T16:41:21.915Z,22.10
2022-09-12T16:43:26.163Z,22.00
2022-09-12T16:45:28.841Z,21.90
2022-09-12T16:47:32.264Z,21.90
2022-09-12T16:49:34.957Z,21.80
2022-09-12T16:51:37.627Z,21.80
2022-09-12T16:53:40.350Z,21.80
2022-09-12T16:55:49.431Z,21.70
2022-09-12T16:57:52.099Z,21.70
2022-09-12T16:59:56.267Z,21.60
2022-09-12T17:01:58.975Z,21.60
2022-09-12T17:04:01.797Z,21.50
2022-09-12T17:06:05.582Z,21.40
2022-09-12T17:08:09.303Z,21.30
2022-09-12T17:10:11.989Z,21.30
2022-09-12T17:12:14.724Z,21.20
2022-09-12T17:14:17.420Z,21.20
2022-09-12T17:16:21.726Z,21.10
2022-09-12T17:18:24.535Z,21.00
2022-09-12T17:20:27.226Z,21.00
2022-09-12T17:22:29.948Z,20.90
2022-09-12T17:24:32.972Z,20.80
2022-09-12T17:26:35.695Z,20.80
2022-09-12T17:28:38.374Z,20.70
2022-09-12T17:30:41.164Z,20.70
2022-09-12T17:32:45.163Z,20.60
2022-09-12T17:34:47.850Z,20.50
2022-09-12T17:36:50.511Z,20.50
2022-09-12T17:38:54.172Z,20.40
2022-09-12T17:40:59.842Z,20.30
2022-09-12T17:43:02.835Z,20.30
2022-09-12T17:45:06.584Z,20.20
2022-09-12T17:47:09.372Z,20.20
2022-09-12T17:49:14.574Z,20.10
2022-09-12T17:51:17.491Z,20.10
2022-09-12T17:53:20.221Z,20.00
2022-09-12T17:55:22.904Z,20.00
2022-09-12T17:57:25.657Z,19.90
2022-09-12T17:59:28.468Z,19.90
2022-09-12T18:01:48.787Z,19.80
2022-09-12T18:03:54.325Z,19.80
2022-09-12T18:05:58.351Z,19.80
2022-09-12T18:08:01.537Z,19.80
2022-09-12T18:10:04.415Z,19.70
2022-09-12T18:12:07.424Z,19.70
2022-09-12T18:14:13.549Z,19.70
2022-09-12T18:16:17.081Z,19.70
2022-09-12T18:18:19.828Z,19.60
2022-09-12T18:20:22.509Z,19.50
2022-09-12T18:22:26.520Z,19.50
2022-09-12T18:24:29.249Z,19.50
2022-09-12T18:26:32.003Z,19.50
2022-09-12T18:28:35.147Z,19.40
2022-09-12T18:30:37.845Z,19.40
2022-09-12T18:32:40.607Z,19.30
2022-09-12T18:34:43.287Z,19.20
2022-09-12T18:36:47.529Z,19.20
2022-09-12T18:38:51.532Z,19.10
2022-09-12T18:41:02.678Z,19.10
2022-09-12T18:43:05.351Z,19.00
2022-09-12T18:45:09.220Z,19.00
2022-09-12T18:47:11.889Z,18.90
2022-09-12T18:49:14.875Z,18.90
2022-09-12T18:51:18.778Z,18.80
2022-09-12T18:53:21.432Z,18.80
2022-09-12T18:55:25.593Z,18.80
2022-09-12T18:57:30.459Z,18.70
2022-09-12T18:59:33.141Z,18.60
2022-09-12T19:01:36.331Z,18.60
2022-09-12T19:03:39.160Z,18.40
2022-09-12T19:05:42.696Z,18.40
2022-09-12T19:07:45.363Z,18.40
2022-09-12T19:09:48.057Z,18.30
2022-09-12T19:11:52.554Z,18.30
2022-09-12T19:13:55.393Z,18.20
2022-09-12T19:15:58.151Z,18.10
2022-09-12T19:18:01.242Z,18.20
2022-09-12T19:20:04.746Z,18.10
2022-09-12T19:22:07.467Z,18.10
2022-09-12T19:24:10.900Z,18.10
2022-09-12T19:26:14.320Z,17.90
2022-09-12T19:28:18.329Z,17.90
2022-09-12T19:30:21.017Z,17.90
2022-09-12T19:32:23.691Z,17.80
2022-09-12T19:34:26.370Z,17.80
2022-09-12T19:36:46.340Z,17.80
2022-09-12T19:38:49.857Z,17.80
2022-09-12T19:40:58.664Z,17.80
2022-09-12T19:43:01.330Z,17.70
2022-09-12T19:45:05.967Z,17.70
2022-09-12T19:47:09.292Z,17.70
2022-09-12T19:49:12.757Z,17.70
2022-09-12T19:51:15.767Z,17.70
2022-09-12T19:53:18.780Z,17.70
2022-09-12T19:55:22.175Z,17.60
2022-09-12T19:57:24.870Z,17.60
2022-09-12T19:59:27.531Z,17.60
2022-09-12T20:01:31.666Z,17.60
2022-09-12T20:03:34.355Z,17.60
2022-09-12T20:05:42.029Z,17.60
2022-09-12T20:07:45.385Z,17.50
2022-09-12T20:09:48.052Z,17.50
2022-09-12T20:11:50.860Z,17.40
2022-09-12T20:13:53.777Z,17.50
2022-09-12T20:15:56.487Z,17.50
2022-09-12T20:18:00.631Z,17.50
2022-09-12T20:20:03.719Z,17.50
2022-09-12T20:22:06.418Z,17.50
2022-09-12T20:24:11.299Z,17.50
2022-09-12T20:26:13.994Z,17.50
2022-09-12T20:28:16.664Z,17.60
2022-09-12T20:30:19.374Z,17.50
2022-09-12T20:32:22.392Z,17.60
2022-09-12T20:34:26.455Z,17.60
2022-09-12T20:36:29.160Z,17.50
2022-09-12T20:38:31.831Z,17.50
2022-09-12T20:40:34.525Z,17.50
2022-09-12T20:42:37.252Z,17.60
2022-09-12T20:44:39.930Z,17.50
2022-09-12T20:46:42.695Z,17.50
2022-09-12T20:48:46.814Z,17.50
2022-09-12T20:50:50.823Z,17.50
2022-09-12T20:52:53.492Z,17.50
2022-09-12T20:54:56.161Z,17.50
2022-09-12T20:56:58.840Z,17.50
2022-09-12T20:59:01.560Z,17.50
2022-09-12T21:01:08.512Z,17.50
2022-09-12T21:03:11.181Z,17.50
2022-09-12T21:05:14.038Z,17.50
2022-09-12T21:07:18.039Z,17.50
2022-09-12T21:09:20.703Z,17.50
2022-09-12T21:11:23.387Z,17.60
2022-09-12T21:13:26.084Z,17.60
2022-09-12T21:15:28.797Z,17.50
2022-09-12T21:17:31.469Z,17.50
2022-09-12T21:19:34.163Z,17.50
2022-09-12T21:21:37.146Z,17.60
2022-09-12T21:23:41.403Z,17.60
2022-09-12T21:25:52.026Z,17.60
2022-09-12T21:27:55.212Z,17.50
2022-09-12T21:29:59.264Z,17.60
2022-09-12T21:32:02.348Z,17.60
2022-09-12T21:34:05.008Z,17.50
2022-09-12T21:36:08.552Z,17.60
2022-09-12T21:38:11.218Z,17.60
2022-09-12T21:40:15.379Z,17.50
2022-09-12T21:42:18.641Z,17.50
2022-09-12T21:44:21.312Z,17.50
2022-09-12T21:46:24.110Z,17.50
2022-09-12T21:48:26.856Z,17.50
2022-09-12T21:50:29.559Z,17.40
2022-09-12T21:52:32.215Z,17.40
2022-09-12T21:54:35.107Z,17.30
2022-09-12T21:56:39.164Z,17.30
2022-09-12T21:58:41.833Z,17.30
2022-09-12T22:00:44.718Z,17.30
2022-09-12T22:02:48.435Z,17.20
2022-09-12T22:04:51.141Z,17.20
2022-09-12T22:06:53.828Z,17.20
2022-09-12T22:08:56.487Z,17.10
2022-09-12T22:11:00.676Z,17.10
2022-09-12T22:13:05.039Z,17.10
2022-09-12T22:15:29.249Z,17.10
2022-09-12T22:17:30.779Z,17.10
2022-09-12T22:19:33.439Z,17.10
2022-09-12T22:21:56.113Z,17.10
2022-09-12T22:24:16.434Z,17.10
2022-09-12T22:26:19.140Z,17.00
2022-09-12T22:28:24.395Z,17.00
2022-09-12T22:30:27.212Z,17.00
2022-09-12T22:32:29.893Z,17.00
2022-09-12T22:34:32.683Z,17.00
2022-09-12T22:36:38.758Z,17.00
2022-09-12T22:38:41.894Z,17.00
2022-09-12T22:40:44.595Z,17.00
2022-09-12T22:42:47.362Z,17.00
2022-09-12T22:44:51.366Z,16.90
2022-09-12T22:46:54.127Z,16.90
2022-09-12T22:48:56.803Z,16.90
2022-09-12T22:50:59.819Z,16.90
2022-09-12T22:53:02.490Z,16.90
2022-09-12T22:55:05.773Z,16.90
2022-09-12T22:57:08.682Z,16.80
2022-09-12T22:59:11.361Z,16.70
2022-09-12T23:01:15.416Z,16.60
2022-09-12T23:03:18.182Z,16.50
2022-09-12T23:05:20.915Z,16.50
2022-09-12T23:07:23.592Z,16.40
2022-09-12T23:09:26.312Z,16.40
2022-09-12T23:11:28.996Z,16.50
2022-09-12T23:13:32.175Z,16.50
2022-09-12T23:15:34.867Z,16.50
2022-09-12T23:17:38.865Z,16.50
2022-09-12T23:19:41.540Z,16.60
2022-09-12T23:21:44.219Z,16.70
2022-09-12T23:23:46.900Z,16.80
2022-09-12T23:25:49.563Z,16.80
2022-09-12T23:27:52.229Z,16.90
2022-09-12T23:29:54.903Z,16.90
2022-09-12T23:31:57.587Z,16.80
2022-09-12T23:34:02.949Z,16.80
2022-09-12T23:36:07.155Z,16.80
2022-09-12T23:38:14.046Z,16.80
2022-09-12T23:40:17.665Z,16.90
2022-09-12T23:42:20.432Z,16.80
2022-09-12T23:44:23.428Z,16.70
2022-09-12T23:46:26.113Z,16.60
2022-09-12T23:48:28.972Z,16.50
2022-09-12T23:50:32.978Z,16.40
2022-09-12T23:52:35.704Z,16.40
2022-09-12T23:54:38.372Z,16.50
2022-09-12T23:56:41.050Z,16.50
2022-09-12T23:58:43.728Z,16.50
